KCLK/CLK METAR and TAF weather

Enter ICAO airport designator
Station Type Date Time Source
KCLK METAR 2024/06/15 22:35 UTC NOAA

KCLK 152235Z AUTO 18017G20KT 10SM SCT070 34/14 A2983 RMK AO2


Station Type Date Time Source
KCLK Decoded METAR 2024/06/15 22:35 UTC NOAA

Clinton, Clinton Regional Airport, OK, United States (KCLK) 35-32-17N 098-55-17W
Jun 15, 2024 - 06:35 PM EDT / 2024.06.15 2235 UTC
Wind: from the S (180 degrees) at 20 MPH (17 KT) gusting to 23 MPH (20 KT):0
Visibility: 10 mile(s):0
Sky conditions: partly cloudy
Temperature: 93 F (34 C)
Dew Point: 57 F (14 C)
Relative Humidity: 30%
Pressure (altimeter): 29.83 in. Hg (1010 hPa)
ob: KCLK 152235Z AUTO 18017G20KT 10SM SCT070 34/14 A2983 RMK AO2
cycle: 22

Station Type Date Time Source
KCLK TAF UTC NOAA

Error!

Example: see airport list